Airfield :
LOGIN :

Register | Disclaimer

   EN    FR    IT 

 










Legend :    VFR   Marginal VFR   IFR   Intensive IFR   Very Intensive IFR
Visi :
Ceiling :
>= 8 km
>= 3000ft
5 to 8 km
1000 to 3000 ft
1500m to 5 km
500 to 1000 ft
800 to 1500m
200 to 500 ft
< 800m
< 200 ft
Symbols :   Thunderstorms  Fog  Heavy snow  Heavy precipitations  Wind > 20 kt
SIGMETs :     Misc.  Thunderstorms  Icing  Turbulence  Mountain Waves  Volcanic Ashes







- Airport Elevation : 622 ft
- IATA code : BRS
- Download approach charts


EGGD - Bristol Int.

CURRENT METAR :
  • 191650Z AUTO 26007KT 9999 NCD 14/09 Q1021

EXPIRED METARs :
  • 191620Z AUTO 26009KT 9999 NCD 15/09 Q1021
  • 191550Z AUTO 24008KT 9999 NCD 16/08 Q1021
  • 191520Z AUTO 24009KT 210V280 9999 FEW028 16/10 Q1021
  • 191450Z AUTO 24008KT 210V280 9999 FEW028 16/10 Q1022
  • 191420Z AUTO 26008KT 230V300 9999 NCD 16/08 Q1022

TAF TAF EGGD
Valid from the 19 at 12:00 until the 20 at 12:00 UTC


191100Z 1912/2012 VRB05KT 9999 SCT020
BECMG 1923/2002 24010KT
TEMPO 2000/2012 6000 BKN010
BECMG 2008/2012 21015G25KT
ATIS : +44 1275 473 666
No reported NOTAMs for that airfield.



MET'MAP, your aeronautical weather chart ! - Copyright ORBIFLY December 2007 - Disclaimer

ORBIFLY MET'MAP TEAM :

Programming & Development : Alexandra Zaïnal
Concept & Development : Baudouin d'Aumeries
Co-Development & Prog : Marc-Olivier Méhu
Technical & hardware support : Manuel Goepfert

Contact : metmap@orbifly.com




SOURCES & CREDITS :

   NOAA